createdAt,value
2019-02-20T00:01:52.177Z,98.70
2019-02-20T00:04:21.468Z,99.00
2019-02-20T00:06:50.763Z,99.00
2019-02-20T00:09:20.327Z,99.10
2019-02-20T00:11:49.616Z,99.30
2019-02-20T00:14:18.906Z,99.40
2019-02-20T00:16:48.306Z,99.50
2019-02-20T00:19:17.666Z,99.70
2019-02-20T00:21:47.054Z,99.90
2019-02-20T00:24:16.385Z,99.90
2019-02-20T00:26:45.899Z,99.90
2019-02-20T00:29:15.292Z,99.90
2019-02-20T00:31:44.746Z,99.90
2019-02-20T00:34:14.144Z,99.90
2019-02-20T00:36:43.457Z,99.90
2019-02-20T00:39:12.845Z,99.90
2019-02-20T00:41:42.142Z,99.90
2019-02-20T00:44:35.981Z,99.90
2019-02-20T00:47:22.907Z,99.90
2019-02-20T00:49:52.616Z,99.90
2019-02-20T00:52:31.743Z,99.90
2019-02-20T00:55:01.043Z,99.90
2019-02-20T00:57:30.637Z,99.90
2019-02-20T00:59:59.986Z,99.90
2019-02-20T01:02:29.380Z,99.90
2019-02-20T01:04:58.742Z,99.90
2019-02-20T01:07:28.129Z,99.90
2019-02-20T01:09:57.485Z,99.90
2019-02-20T01:12:26.830Z,99.90
2019-02-20T01:14:56.132Z,99.90
2019-02-20T01:17:25.504Z,99.90
2019-02-20T01:19:54.812Z,99.90
2019-02-20T01:22:24.173Z,99.90
2019-02-20T01:24:53.763Z,99.90
2019-02-20T01:27:23.437Z,99.90
2019-02-20T01:29:52.782Z,99.90
2019-02-20T01:32:22.541Z,99.90
2019-02-20T01:34:51.893Z,99.90
2019-02-20T01:37:21.333Z,99.90
2019-02-20T01:39:50.794Z,99.90
2019-02-20T01:42:20.161Z,99.90
2019-02-20T01:44:49.540Z,99.90
2019-02-20T01:47:18.946Z,99.90
2019-02-20T01:49:48.283Z,99.90
2019-02-20T01:52:17.675Z,99.90
2019-02-20T01:54:46.994Z,99.90
2019-02-20T01:57:16.284Z,99.90
2019-02-20T01:59:45.641Z,99.90
2019-02-20T02:02:15.029Z,99.90
2019-02-20T02:04:44.409Z,99.90
2019-02-20T02:07:13.768Z,99.90
2019-02-20T02:09:43.173Z,99.90
2019-02-20T02:12:12.540Z,99.90
2019-02-20T02:14:41.941Z,99.90
2019-02-20T02:17:11.412Z,99.90
2019-02-20T02:19:40.733Z,99.90
2019-02-20T02:22:10.041Z,99.90
2019-02-20T02:24:39.578Z,99.90
2019-02-20T02:27:09.274Z,99.90
2019-02-20T02:29:38.661Z,99.90
2019-02-20T02:32:07.995Z,99.90
2019-02-20T02:34:37.359Z,99.90
2019-02-20T02:37:06.726Z,99.90
2019-02-20T02:39:36.127Z,99.90
2019-02-20T02:42:05.490Z,99.90
2019-02-20T02:44:34.779Z,99.90
2019-02-20T02:47:04.195Z,99.90
2019-02-20T02:49:33.563Z,99.90
2019-02-20T02:52:03.182Z,99.90
2019-02-20T02:54:32.505Z,99.90
2019-02-20T02:57:01.951Z,99.90
2019-02-20T02:59:31.346Z,99.90
2019-02-20T03:02:00.769Z,99.90
2019-02-20T03:04:30.142Z,99.90
2019-02-20T03:06:59.456Z,99.90
2019-02-20T03:09:28.806Z,99.90
2019-02-20T03:11:58.126Z,99.90
2019-02-20T03:14:27.422Z,99.90
2019-02-20T03:16:56.765Z,99.90
2019-02-20T03:19:26.054Z,99.90
2019-02-20T03:21:55.486Z,99.90
2019-02-20T03:24:24.872Z,99.90
2019-02-20T03:26:54.297Z,99.90
2019-02-20T03:29:23.601Z,99.90
2019-02-20T03:31:53.060Z,99.90
2019-02-20T03:34:22.438Z,99.90
2019-02-20T03:36:51.987Z,99.90
2019-02-20T03:39:21.330Z,99.90
2019-02-20T03:41:50.734Z,99.90
2019-02-20T03:44:20.055Z,99.90
2019-02-20T03:46:49.387Z,99.90
2019-02-20T03:51:55.677Z,99.90
2019-02-20T03:54:24.972Z,99.90
2019-02-20T03:56:54.348Z,99.90
2019-02-20T03:59:23.834Z,99.90
2019-02-20T04:01:53.288Z,99.90
2019-02-20T04:04:22.878Z,99.90
2019-02-20T04:06:52.197Z,99.90
2019-02-20T04:09:21.496Z,99.90
2019-02-20T04:11:50.805Z,99.90
2019-02-20T04:14:20.229Z,99.90
2019-02-20T04:16:49.644Z,99.90
2019-02-20T04:19:18.925Z,99.90
2019-02-20T04:21:48.252Z,99.90
2019-02-20T04:24:17.562Z,99.90
2019-02-20T04:26:46.853Z,99.90
2019-02-20T04:29:16.298Z,99.90
2019-02-20T04:31:45.690Z,99.90
2019-02-20T04:34:15.077Z,99.90
2019-02-20T04:36:44.414Z,99.90
2019-02-20T04:39:13.730Z,99.90
2019-02-20T04:41:43.092Z,99.90
2019-02-20T04:44:12.515Z,99.90
2019-02-20T04:46:41.803Z,99.90
2019-02-20T04:49:11.197Z,99.90
2019-02-20T04:51:40.621Z,99.90
2019-02-20T04:54:13.404Z,99.90
2019-02-20T04:56:40.938Z,99.90
2019-02-20T04:59:10.312Z,99.90
2019-02-20T05:01:39.658Z,99.90
2019-02-20T05:04:09.021Z,99.90
2019-02-20T05:06:38.417Z,99.90
2019-02-20T05:09:07.944Z,99.90
2019-02-20T05:11:37.265Z,99.90
2019-02-20T05:14:06.617Z,99.90
2019-02-20T05:16:35.999Z,99.90
2019-02-20T05:19:05.393Z,99.90
2019-02-20T05:21:34.738Z,99.90
2019-02-20T05:24:04.122Z,99.90
2019-02-20T05:26:33.518Z,99.90
2019-02-20T05:29:03.069Z,99.90
2019-02-20T05:31:32.497Z,99.90
2019-02-20T05:34:01.821Z,99.90
2019-02-20T05:36:31.333Z,99.90
2019-02-20T05:39:00.884Z,99.90
2019-02-20T05:41:30.256Z,99.90
2019-02-20T05:43:59.817Z,99.90
2019-02-20T05:46:29.217Z,99.90
2019-02-20T05:48:58.611Z,99.90
2019-02-20T05:51:28.144Z,99.90
2019-02-20T05:53:57.630Z,99.90
2019-02-20T05:56:26.930Z,99.90
2019-02-20T05:58:56.277Z,99.90
2019-02-20T06:01:25.713Z,99.90
2019-02-20T06:03:55.156Z,99.90
2019-02-20T06:06:24.539Z,99.90
2019-02-20T06:08:53.896Z,99.90
2019-02-20T06:11:23.284Z,99.90
2019-02-20T06:13:52.754Z,99.90
2019-02-20T06:16:23.445Z,99.90
2019-02-20T06:18:52.781Z,99.90
2019-02-20T06:21:22.242Z,99.90
2019-02-20T06:23:51.548Z,99.90
2019-02-20T06:26:20.980Z,99.90
2019-02-20T06:28:50.598Z,99.90
2019-02-20T06:31:19.885Z,99.90
2019-02-20T06:33:49.455Z,99.90
2019-02-20T06:36:18.769Z,99.90
2019-02-20T06:38:48.309Z,99.90
2019-02-20T06:41:17.690Z,99.90
2019-02-20T06:43:48.097Z,99.90
2019-02-20T06:46:17.773Z,99.90
2019-02-20T06:48:47.152Z,99.90
2019-02-20T06:51:16.545Z,99.90
2019-02-20T06:53:45.947Z,99.90
2019-02-20T06:56:15.375Z,99.90
2019-02-20T06:58:44.725Z,99.90
2019-02-20T07:01:14.110Z,99.90
2019-02-20T07:03:43.500Z,99.90
2019-02-20T07:06:43.889Z,99.90
2019-02-20T07:09:49.162Z,99.90
2019-02-20T07:12:59.983Z,99.90
2019-02-20T07:16:13.394Z,99.90
2019-02-20T07:19:32.212Z,99.90
2019-02-20T07:22:23.262Z,99.90
2019-02-20T07:25:18.590Z,99.90
2019-02-20T07:28:13.378Z,99.90
2019-02-20T07:30:43.197Z,99.90
2019-02-20T07:33:12.664Z,99.90
2019-02-20T07:35:42.168Z,99.90
2019-02-20T07:38:11.623Z,99.90
2019-02-20T07:40:40.984Z,99.90
2019-02-20T07:43:10.337Z,99.90
2019-02-20T07:45:39.984Z,99.90
2019-02-20T07:48:09.345Z,99.90
2019-02-20T07:50:38.649Z,99.90
2019-02-20T07:53:08.113Z,99.90
2019-02-20T07:55:37.524Z,99.90
2019-02-20T07:58:07.267Z,99.90
2019-02-20T08:00:36.906Z,99.90
2019-02-20T08:03:06.382Z,99.90
2019-02-20T08:05:36.088Z,99.90
2019-02-20T08:08:05.618Z,99.90
2019-02-20T08:10:34.917Z,99.90
2019-02-20T08:13:04.397Z,99.90
2019-02-20T08:15:33.981Z,99.90
2019-02-20T08:18:03.304Z,99.90
2019-02-20T08:20:32.612Z,99.90
2019-02-20T08:23:01.999Z,99.90
2019-02-20T08:25:31.357Z,99.90
2019-02-20T08:28:00.756Z,99.90
2019-02-20T08:30:30.298Z,99.90
2019-02-20T08:32:59.620Z,99.90
2019-02-20T08:35:28.919Z,99.90
2019-02-20T08:37:58.678Z,99.90
2019-02-20T08:40:28.034Z,99.90
2019-02-20T08:42:57.334Z,99.90
2019-02-20T08:45:27.001Z,99.90
2019-02-20T08:47:56.569Z,99.90
2019-02-20T08:50:25.958Z,99.90
2019-02-20T08:52:55.372Z,99.90
2019-02-20T08:55:31.738Z,99.90
2019-02-20T08:57:55.733Z,99.90
2019-02-20T09:00:25.470Z,99.90
2019-02-20T09:02:54.782Z,99.90
2019-02-20T09:05:24.093Z,99.90
2019-02-20T09:07:53.677Z,99.90
2019-02-20T09:10:22.994Z,99.90
2019-02-20T09:12:52.290Z,99.90
2019-02-20T09:15:21.725Z,99.90
2019-02-20T09:17:51.393Z,99.90
2019-02-20T09:20:20.665Z,99.90
2019-02-20T09:22:50.141Z,99.90
2019-02-20T09:25:20.183Z,99.90
2019-02-20T09:27:49.576Z,99.90
2019-02-20T09:30:27.946Z,99.90
2019-02-20T09:32:49.977Z,99.90
2019-02-20T09:35:19.279Z,99.80
2019-02-20T09:37:48.744Z,99.90
2019-02-20T09:40:18.034Z,99.90
2019-02-20T09:42:47.889Z,99.70
2019-02-20T09:45:17.207Z,99.80
2019-02-20T09:47:46.624Z,99.20
2019-02-20T09:50:16.257Z,99.00
2019-02-20T09:52:51.907Z,98.70
2019-02-20T09:55:16.545Z,98.50
2019-02-20T09:57:45.971Z,97.80
2019-02-20T10:00:16.107Z,96.30
2019-02-20T10:02:47.262Z,94.70
2019-02-20T10:05:16.437Z,92.70
2019-02-20T10:07:45.750Z,91.40
2019-02-20T10:10:15.222Z,90.50
2019-02-20T10:12:44.502Z,87.90
2019-02-20T10:15:14.636Z,88.10
2019-02-20T10:17:44.002Z,86.30
2019-02-20T10:20:13.383Z,84.70
2019-02-20T10:22:42.994Z,84.90
2019-02-20T10:25:12.437Z,85.90
2019-02-20T10:27:41.734Z,86.40
2019-02-20T10:30:13.991Z,87.30
2019-02-20T10:32:43.300Z,88.60
2019-02-20T10:35:13.366Z,89.20
2019-02-20T10:37:43.102Z,90.00
2019-02-20T10:40:12.523Z,89.50
2019-02-20T10:42:41.834Z,89.20
2019-02-20T10:45:11.224Z,86.70
2019-02-20T10:47:40.553Z,87.50
2019-02-20T10:50:10.149Z,82.70
2019-02-20T10:52:39.458Z,80.50
2019-02-20T10:55:09.166Z,82.10
2019-02-20T10:57:38.475Z,79.70
2019-02-20T11:00:23.568Z,79.60
2019-02-20T11:02:44.937Z,76.90
2019-02-20T11:05:14.366Z,76.00
2019-02-20T11:07:44.124Z,74.30
2019-02-20T11:10:13.493Z,71.90
2019-02-20T11:12:42.870Z,72.60
2019-02-20T11:15:13.147Z,73.50
2019-02-20T11:17:42.709Z,72.50
2019-02-20T11:20:13.653Z,71.80
2019-02-20T11:22:43.009Z,69.80
2019-02-20T11:25:12.336Z,67.90
2019-02-20T11:27:41.684Z,66.40
2019-02-20T11:30:14.747Z,68.50
2019-02-20T11:32:44.596Z,68.00
2019-02-20T11:35:13.977Z,64.00
2019-02-20T11:37:43.382Z,64.40
2019-02-20T11:40:13.298Z,65.10
2019-02-20T11:42:44.522Z,63.20
2019-02-20T11:45:14.018Z,60.40
2019-02-20T11:47:43.502Z,60.90
2019-02-20T11:50:13.137Z,60.00
2019-02-20T11:52:45.089Z,59.20
2019-02-20T11:55:14.358Z,61.10
2019-02-20T11:57:43.801Z,58.90
2019-02-20T12:00:13.262Z,59.90
2019-02-20T12:02:42.691Z,59.30
2019-02-20T12:05:12.354Z,58.50
2019-02-20T12:07:41.781Z,58.20
2019-02-20T12:10:12.647Z,58.70
2019-02-20T12:12:42.260Z,57.50
2019-02-20T12:15:12.112Z,57.10
2019-02-20T12:17:41.618Z,56.50
2019-02-20T12:20:11.546Z,56.80
2019-02-20T12:22:40.980Z,58.30
2019-02-20T12:25:10.743Z,57.90
2019-02-20T12:27:40.635Z,58.50
2019-02-20T12:30:10.193Z,59.90
2019-02-20T12:32:39.651Z,59.90
2019-02-20T12:35:09.069Z,59.30
2019-02-20T12:37:38.485Z,59.70
2019-02-20T12:40:07.976Z,59.20
2019-02-20T12:42:37.398Z,59.00
2019-02-20T12:45:06.943Z,56.90
2019-02-20T12:47:36.399Z,57.30
2019-02-20T12:50:06.157Z,60.00
2019-02-20T12:52:35.522Z,61.10
2019-02-20T12:55:05.310Z,63.00
2019-02-20T12:57:34.659Z,64.60
2019-02-20T13:00:04.141Z,65.60
2019-02-20T13:02:33.588Z,66.00
2019-02-20T13:05:03.225Z,66.60
2019-02-20T13:07:33.219Z,68.70
2019-02-20T13:10:02.550Z,69.70
2019-02-20T13:12:32.184Z,70.40
2019-02-20T13:15:03.666Z,69.20
2019-02-20T13:17:32.752Z,70.00
2019-02-20T13:20:02.512Z,69.40
2019-02-20T13:22:31.956Z,69.60
2019-02-20T13:25:01.310Z,69.50
2019-02-20T13:27:30.846Z,68.50
2019-02-20T13:30:00.273Z,68.60
2019-02-20T13:32:32.625Z,70.20
2019-02-20T13:35:02.051Z,70.90
2019-02-20T13:37:33.270Z,71.00
2019-02-20T13:40:02.688Z,69.70
2019-02-20T13:42:32.246Z,69.50
2019-02-20T13:45:01.546Z,69.40
2019-02-20T13:47:30.924Z,70.20
2019-02-20T13:50:00.518Z,68.00
2019-02-20T13:52:31.251Z,68.30
2019-02-20T13:55:01.282Z,68.60
2019-02-20T13:57:30.698Z,69.00
2019-02-20T14:00:00.362Z,68.10
2019-02-20T14:02:29.923Z,65.80
2019-02-20T14:04:59.439Z,65.70
2019-02-20T14:07:28.815Z,66.10
2019-02-20T14:09:58.385Z,67.40
2019-02-20T14:12:27.795Z,67.20
2019-02-20T14:14:57.393Z,65.50
2019-02-20T14:17:27.035Z,67.00
2019-02-20T14:19:56.588Z,67.20
2019-02-20T14:22:25.924Z,67.80
2019-02-20T14:24:55.597Z,67.50
2019-02-20T14:27:24.960Z,68.20
2019-02-20T14:29:54.295Z,68.50
2019-02-20T14:32:23.594Z,68.80
2019-02-20T14:34:52.985Z,68.80
2019-02-20T14:37:22.378Z,67.80
2019-02-20T14:39:51.798Z,69.00
2019-02-20T14:42:21.125Z,68.00
2019-02-20T14:44:50.471Z,69.30
2019-02-20T14:47:19.767Z,69.70
2019-02-20T14:49:49.109Z,69.60
2019-02-20T14:52:18.705Z,69.90
2019-02-20T14:54:48.055Z,70.10
2019-02-20T14:57:19.826Z,70.50
2019-02-20T14:59:49.243Z,71.00
2019-02-20T15:02:18.622Z,71.60
2019-02-20T15:04:47.966Z,70.10
2019-02-20T15:07:17.286Z,70.60
2019-02-20T15:09:47.081Z,70.50
2019-02-20T15:12:16.810Z,70.90
2019-02-20T15:14:47.589Z,70.70
2019-02-20T15:17:17.216Z,71.10
2019-02-20T15:19:46.784Z,72.00
2019-02-20T15:22:16.119Z,72.50
2019-02-20T15:24:45.483Z,71.60
2019-02-20T15:27:15.157Z,71.90
2019-02-20T15:29:44.632Z,71.80
2019-02-20T15:32:13.998Z,71.20
2019-02-20T15:34:43.424Z,71.30
2019-02-20T15:37:12.790Z,71.70
2019-02-20T15:39:42.185Z,71.00
2019-02-20T15:42:11.861Z,71.50
2019-02-20T15:44:41.149Z,71.30
2019-02-20T15:47:10.550Z,71.70
2019-02-20T15:49:40.084Z,72.50
2019-02-20T15:52:09.475Z,71.70
2019-02-20T15:54:38.839Z,72.10
2019-02-20T15:57:10.633Z,72.30
2019-02-20T15:59:40.091Z,72.50
2019-02-20T16:02:09.499Z,72.90
2019-02-20T16:04:38.959Z,72.80
2019-02-20T16:07:08.349Z,73.50
2019-02-20T16:09:37.673Z,74.00
2019-02-20T16:12:07.573Z,74.10
2019-02-20T16:14:36.843Z,74.40
2019-02-20T16:17:06.144Z,74.80
2019-02-20T16:19:35.698Z,75.30
2019-02-20T16:22:05.130Z,75.70
2019-02-20T16:24:34.510Z,75.50
2019-02-20T16:27:03.849Z,76.20
2019-02-20T16:29:33.202Z,76.30
2019-02-20T16:32:02.626Z,76.20
2019-02-20T16:34:32.179Z,76.60
2019-02-20T16:37:01.558Z,76.70
2019-02-20T16:39:30.984Z,76.80
2019-02-20T16:42:00.490Z,76.90
2019-02-20T16:44:30.103Z,77.30
2019-02-20T16:46:59.437Z,77.60
2019-02-20T16:49:28.969Z,77.70
2019-02-20T16:51:58.440Z,78.20
2019-02-20T16:54:27.768Z,78.90
2019-02-20T16:56:57.197Z,79.30
2019-02-20T16:59:26.807Z,79.70
2019-02-20T17:01:56.178Z,80.00
2019-02-20T17:04:25.602Z,80.40
2019-02-20T17:06:54.980Z,80.80
2019-02-20T17:09:24.451Z,81.90
2019-02-20T17:11:54.067Z,82.40
2019-02-20T17:14:24.062Z,83.00
2019-02-20T17:16:53.397Z,83.50
2019-02-20T17:19:22.871Z,83.80
2019-02-20T17:21:52.301Z,84.20
2019-02-20T17:24:21.709Z,84.70
2019-02-20T17:26:51.179Z,85.30
2019-02-20T17:29:20.947Z,85.70
2019-02-20T17:31:50.422Z,86.50
2019-02-20T17:34:20.456Z,87.80
2019-02-20T17:36:49.796Z,88.10
2019-02-20T17:39:20.831Z,88.70
2019-02-20T17:41:50.283Z,89.40
2019-02-20T17:44:19.902Z,89.80
2019-02-20T17:46:49.187Z,90.00
2019-02-20T17:49:18.518Z,90.00
2019-02-20T17:51:47.913Z,90.00
2019-02-20T17:54:17.309Z,90.20
2019-02-20T17:56:46.913Z,90.30
2019-02-20T17:59:16.566Z,90.60
2019-02-20T18:01:45.988Z,90.80
2019-02-20T18:04:15.322Z,91.30
2019-02-20T18:06:44.639Z,91.70
2019-02-20T18:09:14.302Z,92.50
2019-02-20T18:11:43.974Z,93.20
2019-02-20T18:14:13.354Z,93.40
2019-02-20T18:16:42.722Z,93.70
2019-02-20T18:19:12.039Z,93.80
2019-02-20T18:21:41.393Z,93.90
2019-02-20T18:24:10.693Z,94.80
2019-02-20T18:26:40.022Z,95.20
2019-02-20T18:29:09.406Z,95.40
2019-02-20T18:31:38.866Z,95.50
2019-02-20T18:34:08.368Z,95.60
2019-02-20T18:36:37.750Z,95.80
2019-02-20T18:39:08.140Z,96.20
2019-02-20T18:41:37.683Z,96.30
2019-02-20T18:44:07.026Z,96.70
2019-02-20T18:46:36.457Z,96.90
2019-02-20T18:49:05.930Z,97.10
2019-02-20T18:51:35.249Z,97.30
2019-02-20T18:54:04.575Z,97.60
2019-02-20T18:56:34.221Z,98.00
2019-02-20T18:59:03.759Z,98.30
2019-02-20T19:01:33.132Z,98.10
2019-02-20T19:04:02.536Z,98.40
2019-02-20T19:06:31.847Z,98.80
2019-02-20T19:09:06.698Z,98.60
2019-02-20T19:12:17.325Z,98.80
2019-02-20T19:15:16.940Z,98.90
2019-02-20T19:18:45.833Z,99.00
2019-02-20T19:21:31.819Z,99.10
2019-02-20T19:25:06.700Z,99.10
2019-02-20T19:27:59.234Z,99.20
2019-02-20T19:31:09.670Z,99.30
2019-02-20T19:34:28.226Z,99.30
2019-02-20T19:37:38.088Z,99.40
2019-02-20T19:40:45.738Z,99.50
2019-02-20T19:43:53.268Z,99.60
2019-02-20T19:46:45.194Z,99.50
2019-02-20T19:49:42.833Z,99.50
2019-02-20T19:52:27.021Z,99.50
2019-02-20T19:55:08.738Z,99.40
2019-02-20T19:57:48.274Z,99.40
2019-02-20T20:00:43.516Z,99.90
2019-02-20T20:04:08.889Z,99.70
2019-02-20T20:07:19.430Z,99.80
2019-02-20T20:09:58.609Z,99.90
2019-02-20T20:13:14.510Z,99.90
2019-02-20T20:16:12.022Z,99.90
2019-02-20T20:19:40.520Z,99.80
2019-02-20T20:22:46.660Z,99.90
2019-02-20T20:25:43.931Z,99.90
2019-02-20T20:28:52.849Z,99.90
2019-02-20T20:31:49.984Z,99.90
2019-02-20T20:34:37.948Z,99.90
2019-02-20T20:37:35.042Z,99.90
2019-02-20T20:40:25.862Z,99.90
2019-02-20T20:43:36.263Z,99.90
2019-02-20T20:46:29.168Z,99.90
2019-02-20T20:49:13.254Z,99.90
2019-02-20T20:52:39.171Z,99.90
2019-02-20T20:55:51.154Z,99.90
2019-02-20T20:59:17.624Z,99.90
2019-02-20T21:02:08.493Z,99.90
2019-02-20T21:05:28.312Z,99.90
2019-02-20T21:08:08.627Z,99.90
2019-02-20T21:11:21.597Z,99.90
2019-02-20T21:14:12.310Z,99.90
2019-02-20T21:17:17.463Z,99.90
2019-02-20T21:20:46.562Z,99.90
2019-02-20T21:23:53.619Z,99.90
2019-02-20T21:26:46.115Z,99.90
2019-02-20T21:29:59.306Z,99.90
2019-02-20T21:32:51.749Z,99.90
2019-02-20T21:36:04.261Z,99.90
2019-02-20T21:39:28.625Z,99.90
2019-02-20T21:42:43.658Z,99.90
2019-02-20T21:45:29.720Z,99.90
2019-02-20T21:48:13.628Z,99.90
2019-02-20T21:51:13.213Z,99.90
2019-02-20T21:54:07.530Z,99.90
2019-02-20T21:57:15.231Z,99.90
2019-02-20T22:00:14.323Z,99.90
2019-02-20T22:02:59.281Z,99.90
2019-02-20T22:06:18.208Z,99.90
2019-02-20T22:09:12.594Z,99.90
2019-02-20T22:12:10.747Z,99.90
2019-02-20T22:15:17.057Z,99.90
2019-02-20T22:18:13.074Z,99.90
2019-02-20T22:21:10.883Z,99.90
2019-02-20T22:24:10.607Z,99.90
2019-02-20T22:26:57.084Z,99.90
2019-02-20T22:30:06.937Z,99.90
2019-02-20T22:33:03.242Z,99.90
2019-02-20T22:36:12.552Z,99.90
2019-02-20T22:38:54.603Z,99.90
2019-02-20T22:41:45.217Z,99.90
2019-02-20T22:45:02.221Z,99.90
2019-02-20T22:48:10.309Z,99.90
2019-02-20T22:51:08.372Z,99.90
2019-02-20T22:54:18.765Z,99.90
2019-02-20T22:57:24.902Z,99.90
2019-02-20T23:00:34.627Z,99.90
2019-02-20T23:03:27.445Z,99.90
2019-02-20T23:06:37.987Z,99.90
2019-02-20T23:09:38.782Z,99.90
2019-02-20T23:12:14.879Z,99.90
2019-02-20T23:14:57.670Z,99.90
2019-02-20T23:17:27.734Z,99.90
2019-02-20T23:19:57.100Z,99.90
2019-02-20T23:22:26.407Z,99.90
2019-02-20T23:24:56.027Z,99.90
2019-02-20T23:27:25.447Z,99.90
2019-02-20T23:29:54.764Z,99.90
2019-02-20T23:32:24.122Z,99.90
2019-02-20T23:34:53.411Z,99.90
2019-02-20T23:37:23.004Z,99.90
2019-02-20T23:39:52.649Z,99.90
2019-02-20T23:42:21.965Z,99.90
2019-02-20T23:44:51.349Z,99.90
2019-02-20T23:47:20.758Z,99.90
2019-02-20T23:49:50.069Z,99.90
2019-02-20T23:52:19.374Z,99.90
2019-02-20T23:54:48.783Z,99.90
2019-02-20T23:57:18.136Z,99.90
2019-02-20T23:59:47.455Z,99.90
